sensor_id;sensor_type;location;lat;lon;timestamp;P1;durP1;ratioP1;P2;durP2;ratioP2
46439;SDS011;32138;50.966;6.968;2023-04-01T00:00:44;3.15;;;0.88;;
46439;SDS011;32138;50.966;6.968;2023-04-01T00:01:45;2.60;;;1.10;;
46439;SDS011;32138;50.966;6.968;2023-04-01T00:02:46;2.63;;;0.82;;
46439;SDS011;32138;50.966;6.968;2023-04-01T00:03:47;4.07;;;0.93;;
46439;SDS011;32138;50.966;6.968;2023-04-01T00:04:48;3.38;;;1.33;;
46439;SDS011;32138;50.966;6.968;2023-04-01T00:05:49;1.85;;;0.70;;
46439;SDS011;32138;50.966;6.968;2023-04-01T00:06:50;3.80;;;0.60;;
46439;SDS011;32138;50.966;6.968;2023-04-01T00:07:51;2.95;;;0.95;;
46439;SDS011;32138;50.966;6.968;2023-04-01T00:08:52;2.72;;;1.00;;
46439;SDS011;32138;50.966;6.968;2023-04-01T00:09:53;2.35;;;0.73;;
46439;SDS011;32138;50.966;6.968;2023-04-01T00:10:53;1.63;;;0.68;;
46439;SDS011;32138;50.966;6.968;2023-04-01T00:11:55;3.75;;;0.90;;
46439;SDS011;32138;50.966;6.968;2023-04-01T00:12:55;3.47;;;0.80;;
46439;SDS011;32138;50.966;6.968;2023-04-01T00:13:56;3.97;;;0.60;;
46439;SDS011;32138;50.966;6.968;2023-04-01T00:14:57;1.75;;;0.90;;
46439;SDS011;32138;50.966;6.968;2023-04-01T00:15:58;2.83;;;0.73;;
46439;SDS011;32138;50.966;6.968;2023-04-01T00:17:01;1.40;;;0.50;;
46439;SDS011;32138;50.966;6.968;2023-04-01T00:18:02;2.75;;;0.90;;
46439;SDS011;32138;50.966;6.968;2023-04-01T00:19:03;2.08;;;0.73;;
46439;SDS011;32138;50.966;6.968;2023-04-01T00:20:04;2.88;;;0.60;;
46439;SDS011;32138;50.966;6.968;2023-04-01T00:21:07;2.38;;;0.93;;
46439;SDS011;32138;50.966;6.968;2023-04-01T00:22:08;1.08;;;0.55;;
46439;SDS011;32138;50.966;6.968;2023-04-01T00:23:11;2.88;;;0.65;;
46439;SDS011;32138;50.966;6.968;2023-04-01T00:24:13;3.95;;;0.95;;
46439;SDS011;32138;50.966;6.968;2023-04-01T00:25:13;3.10;;;0.60;;
46439;SDS011;32138;50.966;6.968;2023-04-01T00:26:14;1.85;;;0.75;;
46439;SDS011;32138;50.966;6.968;2023-04-01T00:27:18;1.55;;;0.73;;
46439;SDS011;32138;50.966;6.968;2023-04-01T00:28:20;2.72;;;0.73;;
46439;SDS011;32138;50.966;6.968;2023-04-01T00:29:21;2.47;;;0.60;;
46439;SDS011;32138;50.966;6.968;2023-04-01T00:30:24;2.08;;;0.70;;
46439;SDS011;32138;50.966;6.968;2023-04-01T00:31:24;2.65;;;0.65;;
46439;SDS011;32138;50.966;6.968;2023-04-01T00:32:26;5.22;;;1.00;;
46439;SDS011;32138;50.966;6.968;2023-04-01T00:33:27;3.47;;;0.57;;
46439;SDS011;32138;50.966;6.968;2023-04-01T00:34:27;2.17;;;0.60;;
46439;SDS011;32138;50.966;6.968;2023-04-01T00:35:28;3.05;;;0.82;;
46439;SDS011;32138;50.966;6.968;2023-04-01T00:36:29;2.33;;;0.50;;
46439;SDS011;32138;50.966;6.968;2023-04-01T00:37:30;3.10;;;0.52;;
46439;SDS011;32138;50.966;6.968;2023-04-01T00:38:31;2.25;;;0.47;;
46439;SDS011;32138;50.966;6.968;2023-04-01T00:39:31;1.58;;;0.80;;
46439;SDS011;32138;50.966;6.968;2023-04-01T00:40:35;1.55;;;0.50;;
46439;SDS011;32138;50.966;6.968;2023-04-01T00:42:45;2.75;;;0.80;;
46439;SDS011;32138;50.966;6.968;2023-04-01T00:43:46;1.27;;;0.50;;
46439;SDS011;32138;50.966;6.968;2023-04-01T00:44:51;2.08;;;0.60;;
46439;SDS011;32138;50.966;6.968;2023-04-01T00:45:54;3.05;;;0.85;;
46439;SDS011;32138;50.966;6.968;2023-04-01T00:46:55;2.33;;;0.75;;
46439;SDS011;32138;50.966;6.968;2023-04-01T00:47:56;4.35;;;0.52;;
46439;SDS011;32138;50.966;6.968;2023-04-01T00:49:03;1.88;;;0.60;;
46439;SDS011;32138;50.966;6.968;2023-04-01T00:50:04;1.38;;;0.60;;
46439;SDS011;32138;50.966;6.968;2023-04-01T00:52:11;1.52;;;0.40;;
46439;SDS011;32138;50.966;6.968;2023-04-01T00:53:16;2.08;;;0.70;;
46439;SDS011;32138;50.966;6.968;2023-04-01T00:54:19;3.20;;;0.90;;
46439;SDS011;32138;50.966;6.968;2023-04-01T00:55:22;2.92;;;0.40;;
46439;SDS011;32138;50.966;6.968;2023-04-01T00:56:29;4.15;;;0.85;;
46439;SDS011;32138;50.966;6.968;2023-04-01T00:57:36;2.40;;;0.57;;
46439;SDS011;32138;50.966;6.968;2023-04-01T00:58:41;2.90;;;1.08;;
46439;SDS011;32138;50.966;6.968;2023-04-01T00:59:47;1.83;;;0.60;;
46439;SDS011;32138;50.966;6.968;2023-04-01T01:00:50;1.35;;;0.60;;
46439;SDS011;32138;50.966;6.968;2023-04-01T01:01:52;2.15;;;0.70;;
46439;SDS011;32138;50.966;6.968;2023-04-01T01:02:53;2.17;;;0.68;;
46439;SDS011;32138;50.966;6.968;2023-04-01T01:03:54;1.73;;;0.52;;
46439;SDS011;32138;50.966;6.968;2023-04-01T01:04:55;2.15;;;0.70;;
46439;SDS011;32138;50.966;6.968;2023-04-01T01:08:39;1.05;;;0.55;;
46439;SDS011;32138;50.966;6.968;2023-04-01T01:11:11;2.97;;;0.75;;
46439;SDS011;32138;50.966;6.968;2023-04-01T01:12:13;1.60;;;0.43;;
46439;SDS011;32138;50.966;6.968;2023-04-01T01:14:39;1.25;;;0.40;;
46439;SDS011;32138;50.966;6.968;2023-04-01T01:17:10;4.53;;;0.55;;
46439;SDS011;32138;50.966;6.968;2023-04-01T01:19:00;1.13;;;0.40;;
46439;SDS011;32138;50.966;6.968;2023-04-01T01:26:45;2.40;;;0.47;;
46439;SDS011;32138;50.966;6.968;2023-04-01T01:28:12;2.00;;;0.40;;
46439;SDS011;32138;50.966;6.968;2023-04-01T01:31:34;2.17;;;0.60;;
46439;SDS011;32138;50.966;6.968;2023-04-01T01:33:13;1.05;;;0.45;;
46439;SDS011;32138;50.966;6.968;2023-04-01T01:34:30;2.30;;;0.55;;
46439;SDS011;32138;50.966;6.968;2023-04-01T01:35:38;2.53;;;0.40;;
46439;SDS011;32138;50.966;6.968;2023-04-01T01:38:10;1.50;;;0.30;;
46439;SDS011;32138;50.966;6.968;2023-04-01T01:39:16;3.65;;;0.50;;
46439;SDS011;32138;50.966;6.968;2023-04-01T01:40:18;2.67;;;0.73;;
46439;SDS011;32138;50.966;6.968;2023-04-01T01:41:20;2.20;;;0.75;;
46439;SDS011;32138;50.966;6.968;2023-04-01T01:42:22;1.13;;;0.40;;
46439;SDS011;32138;50.966;6.968;2023-04-01T01:43:33;1.52;;;0.40;;
46439;SDS011;32138;50.966;6.968;2023-04-01T01:44:40;1.85;;;0.40;;
46439;SDS011;32138;50.966;6.968;2023-04-01T01:45:46;1.85;;;0.60;;
46439;SDS011;32138;50.966;6.968;2023-04-01T01:46:51;2.28;;;0.25;;
46439;SDS011;32138;50.966;6.968;2023-04-01T01:47:51;0.73;;;0.30;;
46439;SDS011;32138;50.966;6.968;2023-04-01T01:48:55;2.17;;;0.50;;
46439;SDS011;32138;50.966;6.968;2023-04-01T01:49:56;3.92;;;0.57;;
46439;SDS011;32138;50.966;6.968;2023-04-01T01:50:58;1.75;;;0.50;;
46439;SDS011;32138;50.966;6.968;2023-04-01T01:51:59;0.68;;;0.30;;
46439;SDS011;32138;50.966;6.968;2023-04-01T01:53:04;0.50;;;0.20;;
46439;SDS011;32138;50.966;6.968;2023-04-01T01:54:17;0.52;;;0.22;;
46439;SDS011;32138;50.966;6.968;2023-04-01T01:55:32;0.52;;;0.22;;
46439;SDS011;32138;50.966;6.968;2023-04-01T01:56:38;2.03;;;0.30;;
46439;SDS011;32138;50.966;6.968;2023-04-01T01:57:39;1.00;;;0.22;;
46439;SDS011;32138;50.966;6.968;2023-04-01T01:58:42;0.85;;;0.20;;
46439;SDS011;32138;50.966;6.968;2023-04-01T01:59:47;1.23;;;0.47;;
46439;SDS011;32138;50.966;6.968;2023-04-01T02:00:53;1.65;;;0.35;;
46439;SDS011;32138;50.966;6.968;2023-04-01T02:02:04;1.75;;;0.38;;
46439;SDS011;32138;50.966;6.968;2023-04-01T02:03:08;0.35;;;0.30;;
46439;SDS011;32138;50.966;6.968;2023-04-01T02:04:12;2.83;;;0.43;;
46439;SDS011;32138;50.966;6.968;2023-04-01T02:05:16;2.30;;;0.30;;
46439;SDS011;32138;50.966;6.968;2023-04-01T02:06:21;0.55;;;0.30;;
46439;SDS011;32138;50.966;6.968;2023-04-01T02:07:25;1.00;;;0.30;;
46439;SDS011;32138;50.966;6.968;2023-04-01T02:08:36;0.90;;;0.20;;
46439;SDS011;32138;50.966;6.968;2023-04-01T02:09:51;2.63;;;0.30;;
46439;SDS011;32138;50.966;6.968;2023-04-01T02:11:13;1.90;;;0.43;;
46439;SDS011;32138;50.966;6.968;2023-04-01T02:12:16;2.10;;;0.57;;
46439;SDS011;32138;50.966;6.968;2023-04-01T02:13:21;1.95;;;0.30;;
46439;SDS011;32138;50.966;6.968;2023-04-01T02:14:40;2.45;;;0.28;;
46439;SDS011;32138;50.966;6.968;2023-04-01T02:15:51;2.00;;;0.30;;
46439;SDS011;32138;50.966;6.968;2023-04-01T02:16:58;1.75;;;0.30;;
46439;SDS011;32138;50.966;6.968;2023-04-01T02:18:04;1.60;;;0.30;;
46439;SDS011;32138;50.966;6.968;2023-04-01T02:19:05;0.98;;;0.30;;
46439;SDS011;32138;50.966;6.968;2023-04-01T02:20:13;1.48;;;0.28;;
46439;SDS011;32138;50.966;6.968;2023-04-01T02:21:19;2.85;;;0.50;;
46439;SDS011;32138;50.966;6.968;2023-04-01T02:22:26;2.58;;;0.50;;
46439;SDS011;32138;50.966;6.968;2023-04-01T02:23:32;3.17;;;0.47;;
46439;SDS011;32138;50.966;6.968;2023-04-01T02:24:35;1.35;;;0.32;;
46439;SDS011;32138;50.966;6.968;2023-04-01T02:25:38;0.85;;;0.15;;
46439;SDS011;32138;50.966;6.968;2023-04-01T02:26:41;1.77;;;0.30;;
46439;SDS011;32138;50.966;6.968;2023-04-01T02:27:43;1.00;;;0.30;;
46439;SDS011;32138;50.966;6.968;2023-04-01T02:28:45;0.65;;;0.30;;
46439;SDS011;32138;50.966;6.968;2023-04-01T02:29:48;0.47;;;0.20;;
46439;SDS011;32138;50.966;6.968;2023-04-01T02:30:49;3.00;;;0.30;;
46439;SDS011;32138;50.966;6.968;2023-04-01T02:31:51;1.00;;;0.30;;
46439;SDS011;32138;50.966;6.968;2023-04-01T02:32:53;2.08;;;0.30;;
46439;SDS011;32138;50.966;6.968;2023-04-01T02:33:56;1.15;;;0.20;;
46439;SDS011;32138;50.966;6.968;2023-04-01T02:34:58;1.20;;;0.47;;
46439;SDS011;32138;50.966;6.968;2023-04-01T02:36:03;0.60;;;0.20;;
46439;SDS011;32138;50.966;6.968;2023-04-01T02:37:04;0.63;;;0.50;;
46439;SDS011;32138;50.966;6.968;2023-04-01T02:38:05;3.20;;;0.52;;
46439;SDS011;32138;50.966;6.968;2023-04-01T02:39:07;0.77;;;0.30;;
46439;SDS011;32138;50.966;6.968;2023-04-01T02:40:08;0.43;;;0.25;;
46439;SDS011;32138;50.966;6.968;2023-04-01T02:41:13;0.98;;;0.38;;
46439;SDS011;32138;50.966;6.968;2023-04-01T02:42:14;3.92;;;0.30;;
46439;SDS011;32138;50.966;6.968;2023-04-01T02:43:15;4.20;;;0.77;;
46439;SDS011;32138;50.966;6.968;2023-04-01T02:44:17;1.40;;;0.40;;
46439;SDS011;32138;50.966;6.968;2023-04-01T02:45:18;2.22;;;0.43;;
46439;SDS011;32138;50.966;6.968;2023-04-01T02:46:19;1.25;;;0.40;;
46439;SDS011;32138;50.966;6.968;2023-04-01T02:47:20;1.70;;;0.38;;
46439;SDS011;32138;50.966;6.968;2023-04-01T02:48:20;1.85;;;0.43;;
46439;SDS011;32138;50.966;6.968;2023-04-01T02:49:21;2.25;;;0.38;;
46439;SDS011;32138;50.966;6.968;2023-04-01T02:50:22;2.83;;;0.60;;
46439;SDS011;32138;50.966;6.968;2023-04-01T02:51:23;1.17;;;0.40;;
46439;SDS011;32138;50.966;6.968;2023-04-01T02:52:26;4.03;;;0.85;;
46439;SDS011;32138;50.966;6.968;2023-04-01T02:53:30;1.60;;;0.90;;
46439;SDS011;32138;50.966;6.968;2023-04-01T02:54:31;1.23;;;0.40;;
46439;SDS011;32138;50.966;6.968;2023-04-01T02:55:32;2.35;;;0.50;;
46439;SDS011;32138;50.966;6.968;2023-04-01T02:56:33;1.00;;;0.50;;
46439;SDS011;32138;50.966;6.968;2023-04-01T02:57:34;1.35;;;0.30;;
46439;SDS011;32138;50.966;6.968;2023-04-01T02:58:35;2.20;;;0.63;;
46439;SDS011;32138;50.966;6.968;2023-04-01T02:59:36;3.00;;;1.20;;
46439;SDS011;32138;50.966;6.968;2023-04-01T03:00:37;2.17;;;0.70;;
46439;SDS011;32138;50.966;6.968;2023-04-01T03:01:38;2.35;;;0.43;;
46439;SDS011;32138;50.966;6.968;2023-04-01T03:02:38;2.17;;;0.50;;
46439;SDS011;32138;50.966;6.968;2023-04-01T03:03:39;2.33;;;0.77;;
46439;SDS011;32138;50.966;6.968;2023-04-01T03:04:40;3.42;;;0.90;;
46439;SDS011;32138;50.966;6.968;2023-04-01T03:05:41;1.98;;;0.57;;
46439;SDS011;32138;50.966;6.968;2023-04-01T03:06:42;3.83;;;0.30;;
46439;SDS011;32138;50.966;6.968;2023-04-01T03:07:43;1.88;;;0.45;;
46439;SDS011;32138;50.966;6.968;2023-04-01T03:08:44;1.63;;;0.35;;
46439;SDS011;32138;50.966;6.968;2023-04-01T03:09:45;1.00;;;0.38;;
46439;SDS011;32138;50.966;6.968;2023-04-01T03:10:46;1.75;;;0.28;;
46439;SDS011;32138;50.966;6.968;2023-04-01T03:11:47;1.25;;;0.40;;
46439;SDS011;32138;50.966;6.968;2023-04-01T03:12:47;1.73;;;0.40;;
46439;SDS011;32138;50.966;6.968;2023-04-01T03:13:48;1.48;;;0.60;;
46439;SDS011;32138;50.966;6.968;2023-04-01T03:14:49;1.75;;;0.38;;
46439;SDS011;32138;50.966;6.968;2023-04-01T03:15:50;1.27;;;0.20;;
46439;SDS011;32138;50.966;6.968;2023-04-01T03:16:50;1.13;;;0.30;;
46439;SDS011;32138;50.966;6.968;2023-04-01T03:17:51;0.88;;;0.30;;
46439;SDS011;32138;50.966;6.968;2023-04-01T03:18:52;1.05;;;0.22;;
46439;SDS011;32138;50.966;6.968;2023-04-01T03:19:54;1.17;;;0.30;;
46439;SDS011;32138;50.966;6.968;2023-04-01T03:20:54;2.25;;;0.40;;
46439;SDS011;32138;50.966;6.968;2023-04-01T03:21:55;0.20;;;0.20;;
46439;SDS011;32138;50.966;6.968;2023-04-01T03:22:56;2.00;;;0.50;;
46439;SDS011;32138;50.966;6.968;2023-04-01T03:23:57;3.75;;;0.50;;
46439;SDS011;32138;50.966;6.968;2023-04-01T03:24:58;1.23;;;0.25;;
46439;SDS011;32138;50.966;6.968;2023-04-01T03:25:59;0.85;;;0.30;;
46439;SDS011;32138;50.966;6.968;2023-04-01T03:27:00;3.38;;;0.47;;
46439;SDS011;32138;50.966;6.968;2023-04-01T03:28:01;0.55;;;0.20;;
46439;SDS011;32138;50.966;6.968;2023-04-01T03:29:02;0.98;;;0.30;;
46439;SDS011;32138;50.966;6.968;2023-04-01T03:30:03;1.38;;;0.45;;
46439;SDS011;32138;50.966;6.968;2023-04-01T03:31:05;1.70;;;0.32;;
46439;SDS011;32138;50.966;6.968;2023-04-01T03:32:06;1.38;;;0.47;;
46439;SDS011;32138;50.966;6.968;2023-04-01T03:33:07;1.27;;;0.30;;
46439;SDS011;32138;50.966;6.968;2023-04-01T03:34:08;1.08;;;0.20;;
46439;SDS011;32138;50.966;6.968;2023-04-01T03:35:09;0.63;;;0.20;;
46439;SDS011;32138;50.966;6.968;2023-04-01T03:36:10;2.10;;;0.15;;
46439;SDS011;32138;50.966;6.968;2023-04-01T03:37:12;0.85;;;0.15;;
46439;SDS011;32138;50.966;6.968;2023-04-01T03:38:14;0.40;;;0.15;;
46439;SDS011;32138;50.966;6.968;2023-04-01T03:39:15;1.75;;;0.20;;
46439;SDS011;32138;50.966;6.968;2023-04-01T03:40:18;0.55;;;0.20;;
46439;SDS011;32138;50.966;6.968;2023-04-01T03:41:20;0.55;;;0.20;;
46439;SDS011;32138;50.966;6.968;2023-04-01T03:42:21;1.58;;;0.30;;
46439;SDS011;32138;50.966;6.968;2023-04-01T03:43:22;0.20;;;0.10;;
46439;SDS011;32138;50.966;6.968;2023-04-01T03:44:22;1.08;;;0.30;;
46439;SDS011;32138;50.966;6.968;2023-04-01T03:45:23;0.30;;;0.10;;
46439;SDS011;32138;50.966;6.968;2023-04-01T03:46:24;1.02;;;0.30;;
46439;SDS011;32138;50.966;6.968;2023-04-01T03:47:25;0.22;;;0.13;;
46439;SDS011;32138;50.966;6.968;2023-04-01T03:48:25;0.10;;;0.10;;
46439;SDS011;32138;50.966;6.968;2023-04-01T03:49:26;0.38;;;0.20;;
46439;SDS011;32138;50.966;6.968;2023-04-01T03:50:27;0.28;;;0.10;;
46439;SDS011;32138;50.966;6.968;2023-04-01T03:51:28;0.40;;;0.10;;
46439;SDS011;32138;50.966;6.968;2023-04-01T03:52:29;0.43;;;0.10;;
46439;SDS011;32138;50.966;6.968;2023-04-01T03:53:29;0.93;;;0.10;;
46439;SDS011;32138;50.966;6.968;2023-04-01T03:54:30;1.05;;;0.40;;
46439;SDS011;32138;50.966;6.968;2023-04-01T03:55:32;1.08;;;0.35;;
46439;SDS011;32138;50.966;6.968;2023-04-01T03:56:32;0.22;;;0.10;;
46439;SDS011;32138;50.966;6.968;2023-04-01T03:57:33;0.17;;;0.10;;
46439;SDS011;32138;50.966;6.968;2023-04-01T03:58:34;0.95;;;0.28;;
46439;SDS011;32138;50.966;6.968;2023-04-01T03:59:36;0.22;;;0.13;;
46439;SDS011;32138;50.966;6.968;2023-04-01T04:00:37;0.13;;;0.10;;
46439;SDS011;32138;50.966;6.968;2023-04-01T04:01:37;0.45;;;0.10;;
46439;SDS011;32138;50.966;6.968;2023-04-01T04:02:38;0.20;;;0.00;;
46439;SDS011;32138;50.966;6.968;2023-04-01T04:03:39;1.30;;;0.32;;
46439;SDS011;32138;50.966;6.968;2023-04-01T04:04:40;1.40;;;0.10;;
46439;SDS011;32138;50.966;6.968;2023-04-01T04:05:47;0.65;;;0.10;;
46439;SDS011;32138;50.966;6.968;2023-04-01T04:06:49;0.40;;;0.10;;
46439;SDS011;32138;50.966;6.968;2023-04-01T04:07:51;1.42;;;0.25;;
46439;SDS011;32138;50.966;6.968;2023-04-01T04:08:52;0.35;;;0.10;;
46439;SDS011;32138;50.966;6.968;2023-04-01T04:09:53;0.38;;;0.20;;
46439;SDS011;32138;50.966;6.968;2023-04-01T04:10:54;0.47;;;0.15;;
46439;SDS011;32138;50.966;6.968;2023-04-01T04:11:56;0.10;;;0.10;;
46439;SDS011;32138;50.966;6.968;2023-04-01T04:12:57;0.15;;;0.10;;
46439;SDS011;32138;50.966;6.968;2023-04-01T04:13:58;1.58;;;0.20;;
46439;SDS011;32138;50.966;6.968;2023-04-01T04:14:59;0.03;;;0.03;;
46439;SDS011;32138;50.966;6.968;2023-04-01T04:16:00;0.45;;;0.20;;
46439;SDS011;32138;50.966;6.968;2023-04-01T04:17:00;0.15;;;0.10;;
46439;SDS011;32138;50.966;6.968;2023-04-01T04:18:01;0.30;;;0.13;;
46439;SDS011;32138;50.966;6.968;2023-04-01T04:19:02;0.22;;;0.10;;
46439;SDS011;32138;50.966;6.968;2023-04-01T04:20:04;1.27;;;0.20;;
46439;SDS011;32138;50.966;6.968;2023-04-01T04:21:05;0.60;;;0.13;;
46439;SDS011;32138;50.966;6.968;2023-04-01T04:22:06;0.60;;;0.17;;
46439;SDS011;32138;50.966;6.968;2023-04-01T04:23:07;1.13;;;0.17;;
46439;SDS011;32138;50.966;6.968;2023-04-01T04:24:08;2.42;;;0.85;;
46439;SDS011;32138;50.966;6.968;2023-04-01T04:25:09;1.50;;;0.10;;
46439;SDS011;32138;50.966;6.968;2023-04-01T04:26:11;0.57;;;0.10;;
46439;SDS011;32138;50.966;6.968;2023-04-01T04:27:14;2.28;;;0.10;;
46439;SDS011;32138;50.966;6.968;2023-04-01T04:28:15;0.47;;;0.10;;
46439;SDS011;32138;50.966;6.968;2023-04-01T04:29:16;0.40;;;0.10;;
46439;SDS011;32138;50.966;6.968;2023-04-01T04:30:17;0.60;;;0.10;;
46439;SDS011;32138;50.966;6.968;2023-04-01T04:31:18;1.23;;;0.20;;
46439;SDS011;32138;50.966;6.968;2023-04-01T04:32:20;1.45;;;0.10;;
46439;SDS011;32138;50.966;6.968;2023-04-01T04:33:22;0.47;;;0.20;;
46439;SDS011;32138;50.966;6.968;2023-04-01T04:34:23;0.38;;;0.20;;
46439;SDS011;32138;50.966;6.968;2023-04-01T04:35:23;0.17;;;0.10;;
46439;SDS011;32138;50.966;6.968;2023-04-01T04:36:24;1.10;;;0.30;;
46439;SDS011;32138;50.966;6.968;2023-04-01T04:37:25;0.65;;;0.10;;
46439;SDS011;32138;50.966;6.968;2023-04-01T04:38:26;0.40;;;0.10;;
46439;SDS011;32138;50.966;6.968;2023-04-01T04:39:27;1.77;;;0.20;;
46439;SDS011;32138;50.966;6.968;2023-04-01T04:40:29;0.32;;;0.10;;
46439;SDS011;32138;50.966;6.968;2023-04-01T04:41:29;1.42;;;0.22;;
46439;SDS011;32138;50.966;6.968;2023-04-01T04:42:30;0.82;;;0.10;;
46439;SDS011;32138;50.966;6.968;2023-04-01T04:43:31;0.22;;;0.10;;
46439;SDS011;32138;50.966;6.968;2023-04-01T04:44:32;0.95;;;0.30;;
46439;SDS011;32138;50.966;6.968;2023-04-01T04:45:32;0.20;;;0.10;;
46439;SDS011;32138;50.966;6.968;2023-04-01T04:46:33;1.52;;;0.52;;
46439;SDS011;32138;50.966;6.968;2023-04-01T04:47:34;1.55;;;0.10;;
46439;SDS011;32138;50.966;6.968;2023-04-01T04:48:35;1.23;;;0.28;;
46439;SDS011;32138;50.966;6.968;2023-04-01T04:49:36;0.00;;;0.00;;
46439;SDS011;32138;50.966;6.968;2023-04-01T04:50:36;0.50;;;0.20;;
46439;SDS011;32138;50.966;6.968;2023-04-01T04:51:37;0.47;;;0.10;;
46439;SDS011;32138;50.966;6.968;2023-04-01T04:52:38;0.30;;;0.10;;
46439;SDS011;32138;50.966;6.968;2023-04-01T04:53:39;1.77;;;0.20;;
46439;SDS011;32138;50.966;6.968;2023-04-01T04:54:39;0.40;;;0.17;;
46439;SDS011;32138;50.966;6.968;2023-04-01T04:55:44;1.60;;;0.30;;
46439;SDS011;32138;50.966;6.968;2023-04-01T04:56:50;4.47;;;0.40;;
46439;SDS011;32138;50.966;6.968;2023-04-01T04:57:52;0.80;;;0.10;;
46439;SDS011;32138;50.966;6.968;2023-04-01T04:58:53;0.40;;;0.20;;
46439;SDS011;32138;50.966;6.968;2023-04-01T04:59:54;0.22;;;0.10;;
46439;SDS011;32138;50.966;6.968;2023-04-01T05:00:55;1.13;;;0.30;;
46439;SDS011;32138;50.966;6.968;2023-04-01T05:01:56;0.30;;;0.10;;
46439;SDS011;32138;50.966;6.968;2023-04-01T05:02:57;0.38;;;0.17;;
46439;SDS011;32138;50.966;6.968;2023-04-01T05:03:57;2.05;;;0.20;;
46439;SDS011;32138;50.966;6.968;2023-04-01T05:04:58;0.82;;;0.20;;
46439;SDS011;32138;50.966;6.968;2023-04-01T05:05:59;0.30;;;0.20;;
46439;SDS011;32138;50.966;6.968;2023-04-01T05:07:00;2.03;;;0.20;;
46439;SDS011;32138;50.966;6.968;2023-04-01T05:08:00;2.13;;;0.20;;
46439;SDS011;32138;50.966;6.968;2023-04-01T05:09:01;0.85;;;0.32;;
46439;SDS011;32138;50.966;6.968;2023-04-01T05:10:02;1.50;;;0.20;;
46439;SDS011;32138;50.966;6.968;2023-04-01T05:11:06;0.98;;;0.35;;
46439;SDS011;32138;50.966;6.968;2023-04-01T05:12:10;0.50;;;0.22;;
46439;SDS011;32138;50.966;6.968;2023-04-01T05:13:12;1.80;;;0.22;;
46439;SDS011;32138;50.966;6.968;2023-04-01T05:14:14;0.45;;;0.20;;
46439;SDS011;32138;50.966;6.968;2023-04-01T05:15:15;0.75;;;0.20;;
46439;SDS011;32138;50.966;6.968;2023-04-01T05:16:17;0.73;;;0.30;;
46439;SDS011;32138;50.966;6.968;2023-04-01T05:17:19;0.80;;;0.28;;
46439;SDS011;32138;50.966;6.968;2023-04-01T05:18:20;0.52;;;0.30;;
46439;SDS011;32138;50.966;6.968;2023-04-01T05:19:21;0.82;;;0.20;;
46439;SDS011;32138;50.966;6.968;2023-04-01T05:20:22;2.05;;;0.30;;
46439;SDS011;32138;50.966;6.968;2023-04-01T05:21:23;0.85;;;0.20;;
46439;SDS011;32138;50.966;6.968;2023-04-01T05:22:24;0.30;;;0.10;;
46439;SDS011;32138;50.966;6.968;2023-04-01T05:23:25;2.95;;;0.50;;
46439;SDS011;32138;50.966;6.968;2023-04-01T05:24:26;1.95;;;0.43;;
46439;SDS011;32138;50.966;6.968;2023-04-01T05:25:26;0.85;;;0.20;;
46439;SDS011;32138;50.966;6.968;2023-04-01T05:26:27;0.45;;;0.30;;
46439;SDS011;32138;50.966;6.968;2023-04-01T05:27:28;3.63;;;0.40;;
46439;SDS011;32138;50.966;6.968;2023-04-01T05:28:29;2.80;;;0.30;;
46439;SDS011;32138;50.966;6.968;2023-04-01T05:29:30;1.25;;;0.22;;
46439;SDS011;32138;50.966;6.968;2023-04-01T05:30:30;0.55;;;0.20;;
46439;SDS011;32138;50.966;6.968;2023-04-01T05:31:31;1.23;;;0.30;;
46439;SDS011;32138;50.966;6.968;2023-04-01T05:32:32;1.08;;;0.17;;
46439;SDS011;32138;50.966;6.968;2023-04-01T05:33:33;0.43;;;0.30;;
46439;SDS011;32138;50.966;6.968;2023-04-01T05:34:34;0.90;;;0.30;;
46439;SDS011;32138;50.966;6.968;2023-04-01T05:35:35;0.90;;;0.30;;
46439;SDS011;32138;50.966;6.968;2023-04-01T05:36:36;0.85;;;0.30;;
46439;SDS011;32138;50.966;6.968;2023-04-01T05:37:37;0.65;;;0.28;;
46439;SDS011;32138;50.966;6.968;2023-04-01T05:38:38;1.85;;;0.30;;
46439;SDS011;32138;50.966;6.968;2023-04-01T05:39:39;2.40;;;0.30;;
46439;SDS011;32138;50.966;6.968;2023-04-01T05:40:40;1.42;;;0.30;;
46439;SDS011;32138;50.966;6.968;2023-04-01T05:41:41;2.00;;;0.52;;
46439;SDS011;32138;50.966;6.968;2023-04-01T05:42:41;1.17;;;0.40;;
46439;SDS011;32138;50.966;6.968;2023-04-01T05:43:42;0.57;;;0.17;;
46439;SDS011;32138;50.966;6.968;2023-04-01T05:44:43;2.00;;;0.43;;
46439;SDS011;32138;50.966;6.968;2023-04-01T05:45:44;0.80;;;0.40;;
46439;SDS011;32138;50.966;6.968;2023-04-01T05:46:44;3.05;;;0.47;;
46439;SDS011;32138;50.966;6.968;2023-04-01T05:47:45;1.70;;;0.30;;
46439;SDS011;32138;50.966;6.968;2023-04-01T05:48:46;1.00;;;0.40;;
46439;SDS011;32138;50.966;6.968;2023-04-01T05:49:47;0.55;;;0.30;;
46439;SDS011;32138;50.966;6.968;2023-04-01T05:50:48;1.02;;;0.50;;
46439;SDS011;32138;50.966;6.968;2023-04-01T05:51:48;1.88;;;0.47;;
46439;SDS011;32138;50.966;6.968;2023-04-01T05:52:49;1.55;;;0.38;;
46439;SDS011;32138;50.966;6.968;2023-04-01T05:53:50;1.05;;;0.50;;
46439;SDS011;32138;50.966;6.968;2023-04-01T05:54:51;0.55;;;0.30;;
46439;SDS011;32138;50.966;6.968;2023-04-01T05:55:51;0.75;;;0.30;;
46439;SDS011;32138;50.966;6.968;2023-04-01T05:56:52;1.73;;;0.60;;
46439;SDS011;32138;50.966;6.968;2023-04-01T05:57:53;0.82;;;0.50;;
46439;SDS011;32138;50.966;6.968;2023-04-01T05:58:54;0.85;;;0.32;;
46439;SDS011;32138;50.966;6.968;2023-04-01T05:59:55;0.98;;;0.30;;
46439;SDS011;32138;50.966;6.968;2023-04-01T06:01:05;0.60;;;0.30;;
46439;SDS011;32138;50.966;6.968;2023-04-01T06:02:09;2.33;;;0.40;;
46439;SDS011;32138;50.966;6.968;2023-04-01T06:03:10;1.95;;;0.70;;
46439;SDS011;32138;50.966;6.968;2023-04-01T06:04:15;2.90;;;0.45;;
46439;SDS011;32138;50.966;6.968;2023-04-01T06:06:28;0.52;;;0.30;;
46439;SDS011;32138;50.966;6.968;2023-04-01T06:07:31;0.60;;;0.30;;
46439;SDS011;32138;50.966;6.968;2023-04-01T06:08:32;3.53;;;0.32;;
46439;SDS011;32138;50.966;6.968;2023-04-01T06:09:33;0.80;;;0.30;;
46439;SDS011;32138;50.966;6.968;2023-04-01T06:15:23;1.23;;;0.40;;
46439;SDS011;32138;50.966;6.968;2023-04-01T06:21:22;2.88;;;0.73;;
46439;SDS011;32138;50.966;6.968;2023-04-01T06:28:48;1.73;;;0.50;;
46439;SDS011;32138;50.966;6.968;2023-04-01T06:32:00;4.15;;;0.70;;
46439;SDS011;32138;50.966;6.968;2023-04-01T06:33:19;1.88;;;0.77;;
46439;SDS011;32138;50.966;6.968;2023-04-01T06:34:48;2.47;;;0.65;;
46439;SDS011;32138;50.966;6.968;2023-04-01T06:36:15;5.10;;;0.60;;
46439;SDS011;32138;50.966;6.968;2023-04-01T06:43:15;1.85;;;1.02;;
46439;SDS011;32138;50.966;6.968;2023-04-01T06:46:29;2.35;;;0.50;;
46439;SDS011;32138;50.966;6.968;2023-04-01T06:50:19;0.75;;;0.50;;
46439;SDS011;32138;50.966;6.968;2023-04-01T06:51:47;0.65;;;0.50;;
46439;SDS011;32138;50.966;6.968;2023-04-01T06:53:10;2.55;;;1.08;;
46439;SDS011;32138;50.966;6.968;2023-04-01T06:54:20;1.42;;;0.70;;
46439;SDS011;32138;50.966;6.968;2023-04-01T06:56:47;3.25;;;0.80;;
46439;SDS011;32138;50.966;6.968;2023-04-01T06:57:55;2.15;;;0.82;;
46439;SDS011;32138;50.966;6.968;2023-04-01T06:59:03;1.75;;;0.70;;
46439;SDS011;32138;50.966;6.968;2023-04-01T07:00:27;2.80;;;0.88;;
46439;SDS011;32138;50.966;6.968;2023-04-01T07:03:02;3.28;;;0.80;;
46439;SDS011;32138;50.966;6.968;2023-04-01T07:04:20;2.13;;;0.75;;
46439;SDS011;32138;50.966;6.968;2023-04-01T07:05:30;1.63;;;0.65;;
46439;SDS011;32138;50.966;6.968;2023-04-01T07:06:36;1.63;;;0.88;;
46439;SDS011;32138;50.966;6.968;2023-04-01T07:07:45;3.17;;;0.80;;
46439;SDS011;32138;50.966;6.968;2023-04-01T07:08:49;3.90;;;1.02;;
46439;SDS011;32138;50.966;6.968;2023-04-01T07:09:54;2.92;;;0.70;;
46439;SDS011;32138;50.966;6.968;2023-04-01T07:11:05;3.25;;;0.82;;
46439;SDS011;32138;50.966;6.968;2023-04-01T07:12:15;1.73;;;1.08;;
46439;SDS011;32138;50.966;6.968;2023-04-01T07:15:04;3.13;;;0.80;;